Terminal Aerodrome Forecast
Issued by NWS Denver/Boulder, CO

Home | Current Version | Previous Version | Text Only | Print | Product List | Glossary On
Versions: 1 2 3 4 5 6 7 8 9 10 11 12 13 14 15 16 17 18 19 20 21 22 23 24 25 26 27 28 29 30 31 32 33 34 35 36 37 38 39 40 41 42 43 44 45 46 47 48 49 50
578
FTUS45 KBOU 131727
TAFDEN
TAF
KDEN 131727Z 1318/1424 04005KT 2SM BR SCT002 SCT120
      TEMPO 1318/1319 1/2SM FG
     FM131900 34007KT P6SM FEW140 BKN220
     FM132000 26008KT P6SM SCT220
     FM132200 30011KT P6SM FEW220
     FM140300 36010KT P6SM FEW220
     FM140800 04008KT P6SM SCT140 BKN200
     FM141200 15008KT P6SM SCT110 BKN160
     FM141800 28010KT P6SM SCT080 BKN110=

USA.gov is the U.S. government's official web portal to all federal, state and local government web resources and services.